createdAt,value
2019-06-01T00:02:35.088Z,20.6
2019-06-01T00:04:43.143Z,22.3
2019-06-01T00:06:43.301Z,23.2
2019-06-01T00:08:43.310Z,21.1
2019-06-01T00:10:34.284Z,21.9
2019-06-01T00:12:35.650Z,20.7
2019-06-01T00:14:35.254Z,21.7
2019-06-01T00:16:35.885Z,21.7
2019-06-01T00:18:36.493Z,20
2019-06-01T00:20:36.127Z,18.9
2019-06-01T00:22:35.641Z,20.6
2019-06-01T00:24:35.281Z,21.4
2019-06-01T00:26:35.842Z,19.5
2019-06-01T00:28:36.379Z,20.7
2019-06-01T00:30:35.958Z,20.6
2019-06-01T00:32:35.371Z,23.7
2019-06-01T00:34:36.066Z,21.4
2019-06-01T00:36:36.697Z,22.1
2019-06-01T00:38:36.305Z,25
2019-06-01T00:40:35.960Z,18.5
2019-06-01T00:42:35.342Z,21.9
2019-06-01T00:44:35.991Z,19.2
2019-06-01T00:46:35.591Z,20.4
2019-06-01T00:48:35.204Z,21.4
2019-06-01T00:50:35.836Z,20.6
2019-06-01T00:52:36.381Z,19.8
2019-06-01T00:54:36.023Z,19.7
2019-06-01T00:56:35.628Z,20.9
2019-06-01T00:58:36.103Z,23.1
2019-06-01T01:00:45.634Z,24
2019-06-01T01:02:35.127Z,23.6
2019-06-01T01:04:35.775Z,21.7
2019-06-01T01:06:36.328Z,20.8
2019-06-01T01:08:35.852Z,22.1
2019-06-01T01:10:36.547Z,22.5
2019-06-01T01:12:35.043Z,21.7
2019-06-01T01:14:35.519Z,21.2
2019-06-01T01:16:36.623Z,23.2
2019-06-01T01:18:36.136Z,23
2019-06-01T01:20:36.753Z,20.5
2019-06-01T01:22:35.324Z,21.2
2019-06-01T01:24:35.881Z,21
2019-06-01T01:26:36.537Z,21.2
2019-06-01T01:28:36.086Z,21.8
2019-06-01T01:30:36.662Z,23.2
2019-06-01T01:32:35.763Z,22.6
2019-06-01T01:34:35.438Z,21.3
2019-06-01T01:36:35.043Z,18.7
2019-06-01T01:38:35.864Z,23.3
2019-06-01T01:40:35.489Z,18.2
2019-06-01T01:42:35.944Z,20.9
2019-06-01T01:44:35.422Z,19.5
2019-06-01T01:46:35.932Z,19.3
2019-06-01T01:48:35.903Z,18.2
2019-06-01T01:52:34.897Z,14.7
2019-06-01T01:54:34.386Z,18.7
2019-06-01T01:56:36.821Z,17.6
2019-06-01T01:58:36.312Z,15.9
2019-06-01T02:00:36.043Z,15.4
2019-06-01T02:02:35.457Z,14.9
2019-06-01T02:04:42.465Z,14.6
2019-06-01T02:06:45.828Z,13.3
2019-06-01T02:08:44.341Z,11.9
2019-06-01T02:10:35.959Z,11
2019-06-01T02:12:35.468Z,10.2
2019-06-01T02:14:35.906Z,9.6
2019-06-01T02:16:36.529Z,8.4
2019-06-01T02:18:36.072Z,8.6
2019-06-01T02:20:36.666Z,8.4
2019-06-01T02:22:36.080Z,7.2
2019-06-01T02:24:35.599Z,8
2019-06-01T02:26:36.215Z,5.8
2019-06-01T02:28:35.824Z,6.7
2019-06-01T02:30:36.320Z,6.1
2019-06-01T02:32:35.904Z,6.1
2019-06-01T02:34:35.472Z,5.8
2019-06-01T02:36:36.130Z,5.4
2019-06-01T02:38:36.698Z,4.8
2019-06-01T02:40:36.352Z,5.8
2019-06-01T02:42:35.945Z,6.3
2019-06-01T02:44:35.502Z,4.9
2019-06-01T02:46:36.543Z,4.5
2019-06-01T02:48:35.987Z,4.8
2019-06-01T02:50:37.032Z,5.2
2019-06-01T02:52:35.503Z,4.6
2019-06-01T02:54:35.954Z,2.8
2019-06-01T02:56:36.508Z,3.8
2019-06-01T02:58:35.951Z,3.4
2019-06-01T03:00:36.541Z,2.7
2019-06-01T03:02:35.977Z,2.6
2019-06-01T03:04:35.597Z,2.8
2019-06-01T03:06:35.138Z,2.9
2019-06-01T03:08:35.732Z,3.5
2019-06-01T03:10:35.263Z,3.2
2019-06-01T03:12:35.769Z,3.2
2019-06-01T03:14:36.243Z,3.5
2019-06-01T03:16:35.918Z,3.4
2019-06-01T03:18:35.806Z,3.4
2019-06-01T03:20:35.450Z,3
2019-06-01T03:22:34.921Z,3.3
2019-06-01T03:24:35.371Z,2.5
2019-06-01T03:26:35.877Z,2.5
2019-06-01T03:28:36.380Z,2.6
2019-06-01T03:30:35.994Z,2.1
2019-06-01T03:32:37.724Z,2
2019-06-01T03:34:35.289Z,2.6
2019-06-01T03:36:36.135Z,2.3
2019-06-01T03:38:35.566Z,2.2
2019-06-01T03:40:35.033Z,2.1
2019-06-01T03:42:36.418Z,2
2019-06-01T03:44:35.890Z,2
2019-06-01T03:46:35.436Z,1.5
2019-06-01T03:48:35.888Z,2.1
2019-06-01T03:50:35.447Z,1.6
2019-06-01T03:52:35.928Z,1.9
2019-06-01T03:54:36.390Z,1.5
2019-06-01T03:56:36.010Z,1.8
2019-06-01T03:58:35.523Z,2
2019-06-01T04:02:35.290Z,2.1
2019-06-01T04:04:35.735Z,1.9
2019-06-01T04:06:36.314Z,2.1
2019-06-01T04:08:35.855Z,2
2019-06-01T04:10:36.457Z,1.8
2019-06-01T04:12:35.987Z,1.6
2019-06-01T04:14:36.421Z,1.9
2019-06-01T04:16:35.962Z,1.7
2019-06-01T04:18:35.468Z,1.7
2019-06-01T04:20:36.141Z,1.7
2019-06-01T04:22:35.522Z,1.6
2019-06-01T04:24:34.914Z,1.9
2019-06-01T04:26:36.465Z,1.9
2019-06-01T04:28:35.936Z,2
2019-06-01T04:30:36.553Z,1.9
2019-06-01T04:32:50.427Z,2
2019-06-01T04:34:36.298Z,1.9
2019-06-01T04:36:35.981Z,1.9
2019-06-01T04:38:35.515Z,2
2019-06-01T04:40:36.149Z,2.3
2019-06-01T04:42:35.611Z,1.9
2019-06-01T04:44:35.255Z,1.7
2019-06-01T04:46:36.073Z,2
2019-06-01T04:48:35.908Z,2.3
2019-06-01T04:50:36.409Z,1.7
2019-06-01T04:52:35.881Z,1.7
2019-06-01T04:54:35.277Z,2.2
2019-06-01T04:56:35.884Z,1.7
2019-06-01T04:58:36.232Z,1.8
2019-06-01T05:02:36.023Z,1.7
2019-06-01T05:04:35.357Z,1.5
2019-06-01T05:06:35.956Z,1.7
2019-06-01T05:08:35.412Z,1.5
2019-06-01T05:10:35.011Z,1.5
2019-06-01T05:12:36.458Z,1.7
2019-06-01T05:14:35.781Z,1.7
2019-06-01T05:16:35.324Z,2.2
2019-06-01T05:18:35.849Z,2.1
2019-06-01T05:20:35.475Z,2.5
2019-06-01T05:22:35.888Z,2.3
2019-06-01T05:24:36.258Z,2.4
2019-06-01T05:26:35.797Z,2.2
2019-06-01T05:28:36.294Z,2.6
2019-06-01T05:30:35.926Z,2.1
2019-06-01T05:32:35.462Z,2.5
2019-06-01T05:34:35.978Z,2.1
2019-06-01T05:36:35.567Z,1.6
2019-06-01T05:38:35.020Z,1.5
2019-06-01T05:40:36.110Z,1.3
2019-06-01T05:42:35.545Z,1.3
2019-06-01T05:44:35.877Z,1.1
2019-06-01T05:46:35.522Z,1.1
2019-06-01T05:48:35.096Z,1.1
2019-06-01T05:50:35.671Z,0.9
2019-06-01T05:52:36.085Z,0.9
2019-06-01T05:54:35.390Z,1
2019-06-01T05:56:36.570Z,0.9
2019-06-01T05:58:34.537Z,1.2
2019-06-01T06:00:36.124Z,1.1
2019-06-01T06:02:35.594Z,0.9
2019-06-01T06:04:36.030Z,1.1
2019-06-01T06:06:35.574Z,0.9
2019-06-01T06:08:35.119Z,1
2019-06-01T06:10:35.635Z,0.8
2019-06-01T06:12:36.074Z,0.9
2019-06-01T06:14:35.494Z,1
2019-06-01T06:16:36.044Z,0.9
2019-06-01T06:18:35.591Z,0.8
2019-06-01T06:20:36.129Z,1
2019-06-01T06:22:36.538Z,0.9
2019-06-01T06:24:36.003Z,0.9
2019-06-01T06:26:35.585Z,1
2019-06-01T06:28:35.180Z,1
2019-06-01T06:30:35.806Z,1.6
2019-06-01T06:32:36.483Z,1.1
2019-06-01T06:34:35.948Z,1.4
2019-06-01T06:36:35.626Z,1.2
2019-06-01T06:38:35.053Z,1
2019-06-01T06:40:35.646Z,1.2
2019-06-01T06:42:36.161Z,1.2
2019-06-01T06:44:35.850Z,1.4
2019-06-01T06:46:35.521Z,1.5
2019-06-01T06:48:36.007Z,1.4
2019-06-01T06:50:35.716Z,1
2019-06-01T06:52:36.231Z,1.2
2019-06-01T06:54:36.698Z,1.2
2019-06-01T06:56:35.376Z,1
2019-06-01T06:58:36.400Z,1
2019-06-01T07:02:33.404Z,0.8
2019-06-01T07:04:35.746Z,0.8
2019-06-01T07:06:36.310Z,0.8
2019-06-01T07:08:35.787Z,0.7
2019-06-01T07:10:36.376Z,0.8
2019-06-01T07:12:35.916Z,0.8
2019-06-01T07:14:35.445Z,0.7
2019-06-01T07:16:36.031Z,0.6
2019-06-01T07:18:35.644Z,0.7
2019-06-01T07:20:36.573Z,0.6
2019-06-01T07:22:35.126Z,0.6
2019-06-01T07:24:35.759Z,0.5
2019-06-01T07:26:36.376Z,0.5
2019-06-01T07:28:35.980Z,0.6
2019-06-01T07:30:50.611Z,0.5
2019-06-01T07:32:36.083Z,0.5
2019-06-01T07:34:42.860Z,0.7
2019-06-01T07:36:36.138Z,0.7
2019-06-01T07:38:35.743Z,0.6
2019-06-01T07:40:36.577Z,0.7
2019-06-01T07:42:36.113Z,0.5
2019-06-01T07:44:35.695Z,0.7
2019-06-01T07:46:36.507Z,0.6
2019-06-01T07:48:36.007Z,0.5
2019-06-01T07:50:36.655Z,0.6
2019-06-01T07:52:36.191Z,0.7
2019-06-01T07:54:35.739Z,0.8
2019-06-01T07:56:35.431Z,0.7
2019-06-01T07:58:35.984Z,0.5
2019-06-01T08:02:35.795Z,0.5
2019-06-01T08:04:54.542Z,0.5
2019-06-01T08:06:36.498Z,0.5
2019-06-01T08:08:35.452Z,0.6
2019-06-01T08:10:36.152Z,0.5
2019-06-01T08:12:35.660Z,0.7
2019-06-01T08:14:36.286Z,0.5
2019-06-01T08:16:35.937Z,0.7
2019-06-01T08:18:35.502Z,0.7
2019-06-01T08:20:36.173Z,0.6
2019-06-01T08:22:35.625Z,0.8
2019-06-01T08:24:35.041Z,0.7
2019-06-01T08:26:35.636Z,0.6
2019-06-01T08:28:36.302Z,0.8
2019-06-01T08:30:35.884Z,0.7
2019-06-01T08:32:35.420Z,0.7
2019-06-01T08:34:35.850Z,0.8
2019-06-01T08:36:35.566Z,0.8
2019-06-01T08:38:35.048Z,1
2019-06-01T08:40:35.695Z,0.8
2019-06-01T08:42:36.138Z,1.3
2019-06-01T08:44:35.654Z,1.1
2019-06-01T08:46:35.372Z,1
2019-06-01T08:48:35.811Z,1
2019-06-01T08:50:35.462Z,1.1
2019-06-01T08:52:35.890Z,1.2
2019-06-01T08:54:36.210Z,1.1
2019-06-01T08:56:35.804Z,1
2019-06-01T08:58:35.251Z,1.1
2019-06-01T09:00:35.988Z,0.9
2019-06-01T09:02:36.435Z,1
2019-06-01T09:04:35.861Z,1.1
2019-06-01T09:06:35.626Z,1.1
2019-06-01T09:08:36.087Z,1
2019-06-01T09:11:23.099Z,1
2019-06-01T09:12:35.731Z,1.2
2019-06-01T09:14:35.777Z,1
2019-06-01T09:16:36.297Z,1.1
2019-06-01T09:18:36.043Z,1
2019-06-01T09:20:38.968Z,1.1
2019-06-01T09:22:35.949Z,1.1
2019-06-01T09:24:36.437Z,1.2
2019-06-01T09:26:36.296Z,1.4
2019-06-01T09:28:36.477Z,1.2
2019-06-01T09:30:36.528Z,1.2
2019-06-01T09:32:36.777Z,1.4
2019-06-01T09:34:36.642Z,1.5
2019-06-01T09:36:35.263Z,1
2019-06-01T09:38:36.331Z,1.1
2019-06-01T09:52:38.463Z,1.3
2019-06-01T09:54:37.790Z,1.4
2019-06-01T09:56:39.724Z,1.5
2019-06-01T09:58:36.995Z,1.5
2019-06-01T10:00:43.908Z,1.5
2019-06-01T10:02:36.572Z,1.3
2019-06-01T10:04:36.739Z,1.5
2019-06-01T10:06:36.828Z,1.8
2019-06-01T10:08:36.554Z,1.5
2019-06-01T10:10:36.420Z,1.5
2019-06-01T10:12:36.452Z,1.8
2019-06-01T10:14:36.460Z,1.4
2019-06-01T10:16:37.046Z,1
2019-06-01T10:20:35.402Z,1.1
2019-06-01T10:20:37.181Z,1
2019-06-01T10:24:37.355Z,1.3
2019-06-01T10:26:36.253Z,1.1
2019-06-01T10:28:36.152Z,1.2
2019-06-01T10:30:34.191Z,1.1
2019-06-01T10:32:35.891Z,1.2
2019-06-01T10:34:36.189Z,1
2019-06-01T10:36:36.150Z,1.1
2019-06-01T10:38:37.001Z,1.2
2019-06-01T10:40:35.642Z,1
2019-06-01T10:42:37.532Z,1
2019-06-01T10:44:45.500Z,0.8
2019-06-01T10:46:36.283Z,1.1
2019-06-01T10:48:36.453Z,0.9
2019-06-01T10:50:38.004Z,0.9
2019-06-01T10:52:37.900Z,1.1
2019-06-01T10:54:36.400Z,0.9
2019-06-01T10:56:36.469Z,0.9
2019-06-01T10:58:59.865Z,0.7
2019-06-01T11:00:50.485Z,0.8
2019-06-01T11:02:36.910Z,0.7
2019-06-01T11:04:37.304Z,0.8
2019-06-01T11:06:47.875Z,0.9
2019-06-01T11:08:37.275Z,0.8
2019-06-01T11:10:35.413Z,0.8
2019-06-01T11:12:35.319Z,1
2019-06-01T11:14:37.311Z,0.9
2019-06-01T11:16:37.476Z,1
2019-06-01T11:18:37.756Z,0.9
2019-06-01T11:20:37.051Z,1
2019-06-01T11:22:35.890Z,1.3
2019-06-01T11:24:37.185Z,1.2
2019-06-01T11:26:35.856Z,1.3
2019-06-01T11:28:37.731Z,1.4
2019-06-01T11:30:37.832Z,1.4
2019-06-01T11:32:36.430Z,1.6
2019-06-01T11:34:38.114Z,1.8
2019-06-01T11:36:53.886Z,1.9
2019-06-01T11:38:36.530Z,1.9
2019-06-01T11:40:36.739Z,2.2
2019-06-01T11:42:37.215Z,2.2
2019-06-01T11:46:34.944Z,2.3
2019-06-01T11:50:36.789Z,1.8
2019-06-01T11:50:37.179Z,1.8
2019-06-01T11:54:37.242Z,2.3
2019-06-01T11:56:35.382Z,2.6
2019-06-01T11:58:37.386Z,2
2019-06-01T12:02:37.387Z,1.8
2019-06-01T12:04:36.218Z,1.8
2019-06-01T12:06:33.577Z,2
2019-06-01T12:08:36.266Z,1.6
2019-06-01T12:10:36.890Z,1.8
2019-06-01T12:12:36.222Z,1.6
2019-06-01T12:14:36.560Z,1.5
2019-06-01T12:16:36.626Z,1.3
2019-06-01T12:18:36.660Z,1.2
2019-06-01T12:20:36.799Z,1
2019-06-01T12:22:34.624Z,0.9
2019-06-01T12:24:37.138Z,0.8
2019-06-01T12:26:37.126Z,0.8
2019-06-01T12:28:37.438Z,0.8
2019-06-01T12:30:37.723Z,1.1
2019-06-01T12:32:37.687Z,1.2
2019-06-01T12:34:35.946Z,1.5
2019-06-01T12:36:35.936Z,3.6
2019-06-01T12:38:35.643Z,3.3
2019-06-01T12:40:36.227Z,2.8
2019-06-01T12:42:36.136Z,2.4
2019-06-01T12:44:35.681Z,2.2
2019-06-01T12:46:35.049Z,2.9
2019-06-01T12:48:35.707Z,2.7
2019-06-01T12:50:36.161Z,3.1
2019-06-01T13:36:46.832Z,10.9
2019-06-01T13:38:35.890Z,8
2019-06-01T13:40:35.524Z,9.5
2019-06-01T13:42:36.782Z,10.9
2019-06-01T13:44:35.229Z,10.2
2019-06-01T13:46:35.670Z,9.4
2019-06-01T13:48:36.221Z,8.9
2019-06-01T13:50:36.706Z,10.2
2019-06-01T13:52:36.214Z,9
2019-06-01T13:54:40.426Z,9.9
2019-06-01T13:56:38.501Z,6.2
2019-06-01T13:58:34.445Z,6.6
2019-06-01T14:00:35.909Z,9.5
2019-06-01T14:02:35.249Z,8
2019-06-01T14:04:35.624Z,8.5
2019-06-01T14:06:35.152Z,6.2
2019-06-01T14:08:35.510Z,10.2
2019-06-01T14:10:35.936Z,11.7
2019-06-01T14:12:35.409Z,10.4
2019-06-01T14:14:35.822Z,10.2
2019-06-01T14:16:35.585Z,8.8
2019-06-01T14:18:35.685Z,8
2019-06-01T14:20:35.166Z,10.5
2019-06-01T14:22:35.631Z,12.4
2019-06-01T14:24:36.001Z,12.7
2019-06-01T14:26:35.554Z,10.8
2019-06-01T14:28:36.048Z,9.6
2019-06-01T14:30:35.384Z,10.8
2019-06-01T14:32:35.736Z,8.9
2019-06-01T14:34:35.243Z,9.5
2019-06-01T14:36:35.865Z,8.3
2019-06-01T14:38:48.948Z,11.3
2019-06-01T14:40:35.556Z,11.5
2019-06-01T14:42:36.036Z,8.7
2019-06-01T14:44:35.514Z,7
2019-06-01T14:46:58.952Z,7.5
2019-06-01T14:48:35.360Z,8.7
2019-06-01T14:50:35.765Z,9.6
2019-06-01T14:52:35.609Z,12.1
2019-06-01T14:54:36.181Z,10.4
2019-06-01T14:56:35.654Z,7.6
2019-06-01T14:58:36.764Z,10.7
2019-06-01T15:00:35.074Z,12.2
2019-06-01T15:02:35.479Z,11
2019-06-01T15:04:35.897Z,13.2
2019-06-01T15:06:35.265Z,12.6
2019-06-01T15:08:35.806Z,12.6
2019-06-01T15:10:35.264Z,10.7
2019-06-01T15:12:35.761Z,8.8
2019-06-01T15:14:35.615Z,12.3
2019-06-01T15:16:36.305Z,11.8
2019-06-01T15:18:35.818Z,14.4
2019-06-01T15:20:35.200Z,13.2
2019-06-01T15:22:35.583Z,8.7
2019-06-01T15:24:36.080Z,13.2
2019-06-01T15:26:35.483Z,13
2019-06-01T15:28:35.952Z,12.1
2019-06-01T15:30:35.338Z,13.6
2019-06-01T15:32:35.939Z,11.9
2019-06-01T15:34:35.475Z,12.2
2019-06-01T15:36:35.902Z,10.9
2019-06-01T15:38:35.458Z,12.4
2019-06-01T15:40:35.893Z,11.9
2019-06-01T15:42:35.299Z,13.1
2019-06-01T15:44:35.667Z,13.8
2019-06-01T15:46:36.116Z,13.1
2019-06-01T15:48:35.647Z,11
2019-06-01T15:50:35.088Z,10.1
2019-06-01T15:52:35.523Z,11.5
2019-06-01T15:54:35.908Z,12.8
2019-06-01T15:56:35.712Z,12.9
2019-06-01T15:58:53.430Z,12.6
2019-06-01T16:00:36.045Z,13.3
2019-06-01T16:02:35.392Z,12.7
2019-06-01T16:04:36.550Z,12.4
2019-06-01T16:06:36.977Z,11.9
2019-06-01T16:08:35.406Z,12.3
2019-06-01T16:10:35.719Z,10.9
2019-06-01T16:12:35.069Z,12
2019-06-01T16:14:35.414Z,12.9
2019-06-01T16:16:35.951Z,12.9
2019-06-01T16:18:35.470Z,11.7
2019-06-01T16:20:35.984Z,12.7
2019-06-01T16:22:35.379Z,10.3
2019-06-01T16:24:35.874Z,12.4
2019-06-01T16:26:35.294Z,12.2
2019-06-01T16:28:35.761Z,11.6
2019-06-01T16:30:35.672Z,11.2
2019-06-01T16:32:39.909Z,10.4
2019-06-01T16:34:35.434Z,12
2019-06-01T16:36:35.999Z,10.3
2019-06-01T16:38:35.579Z,11.4
2019-06-01T16:40:35.967Z,11
2019-06-01T16:42:35.298Z,12.5
2019-06-01T16:44:35.665Z,11.8
2019-06-01T16:46:35.088Z,9.7
2019-06-01T16:48:35.562Z,10.3
2019-06-01T16:50:35.944Z,11.7
2019-06-01T16:52:35.566Z,10.5
2019-06-01T16:54:36.029Z,11.9
2019-06-01T16:56:35.510Z,12.1
2019-06-01T16:58:35.920Z,11.8
2019-06-01T17:00:35.364Z,11.1
2019-06-01T17:02:35.889Z,10.9
2019-06-01T17:04:35.242Z,11.4
2019-06-01T17:06:35.594Z,10.8
2019-06-01T17:08:36.088Z,10.9
2019-06-01T17:10:35.427Z,11.8
2019-06-01T17:12:35.924Z,9.6
2019-06-01T17:14:35.926Z,11.6
2019-06-01T17:16:33.789Z,9.7
2019-06-01T17:18:35.209Z,11.4
2019-06-01T17:20:35.610Z,12.1
2019-06-01T17:22:36.063Z,10.9
2019-06-01T17:24:35.522Z,9.5
2019-06-01T17:26:35.817Z,10.1
2019-06-01T17:28:35.420Z,10.5
2019-06-01T17:30:35.757Z,12.4
2019-06-01T17:32:36.091Z,11.3
2019-06-01T17:34:35.494Z,11.2
2019-06-01T17:36:36.010Z,11
2019-06-01T17:38:35.440Z,11.4
2019-06-01T17:40:39.875Z,10.3
2019-06-01T17:42:35.805Z,10.5
2019-06-01T17:44:35.171Z,10.4
2019-06-01T17:46:53.725Z,9.9
2019-06-01T17:48:36.534Z,10.5
2019-06-01T17:50:35.958Z,11.1
2019-06-01T17:52:35.451Z,10.6
2019-06-01T17:54:36.842Z,11.3
2019-06-01T17:56:35.301Z,10.9
2019-06-01T17:58:35.751Z,11
2019-06-01T18:00:35.185Z,11
2019-06-01T18:02:35.621Z,9.2
2019-06-01T18:04:45.535Z,9.9
2019-06-01T18:06:49.024Z,9.7
2019-06-01T18:08:44.521Z,10.9
2019-06-01T18:10:55.184Z,9.9
2019-06-01T18:12:44.257Z,10.9
2019-06-01T18:14:43.645Z,11
2019-06-01T18:16:44.060Z,11
2019-06-01T18:18:44.424Z,8.2
2019-06-01T18:20:43.899Z,8.4
2019-06-01T18:22:44.301Z,10.2
2019-06-01T18:24:43.649Z,9.5
2019-06-01T18:26:44.099Z,9.2
2019-06-01T18:28:43.533Z,9.5
2019-06-01T18:30:43.885Z,8.8
2019-06-01T18:32:44.242Z,9.9
2019-06-01T18:34:43.793Z,9.1
2019-06-01T18:36:44.396Z,9.2
2019-06-01T18:38:43.758Z,9.2
2019-06-01T18:40:44.221Z,8.6
2019-06-01T18:42:43.560Z,8
2019-06-01T18:44:43.981Z,7.9
2019-06-01T18:46:44.415Z,7.3
2019-06-01T18:48:43.750Z,7.7
2019-06-01T18:50:44.066Z,7.6
2019-06-01T18:52:44.598Z,7.9
2019-06-01T18:54:43.968Z,8.4
2019-06-01T18:56:44.306Z,7.1
2019-06-01T18:58:43.723Z,7.1
2019-06-01T19:00:44.095Z,7.4
2019-06-01T19:02:44.455Z,7.9
2019-06-01T19:04:44.074Z,7.3
2019-06-01T19:06:45.202Z,8.8
2019-06-01T19:08:43.817Z,8.4
2019-06-01T19:10:44.356Z,6.6
2019-06-01T19:12:44.196Z,7.6
2019-06-01T19:14:43.502Z,8.1
2019-06-01T19:16:43.870Z,6.6
2019-06-01T19:18:44.319Z,7.3
2019-06-01T19:20:43.742Z,7.5
2019-06-01T19:22:44.185Z,8.2
2019-06-01T19:24:43.610Z,6.2
2019-06-01T19:26:44.025Z,7.2
2019-06-01T19:28:44.485Z,7.3
2019-06-01T19:30:43.924Z,7.5
2019-06-01T19:32:44.507Z,7.4
2019-06-01T19:34:44.022Z,8
2019-06-01T19:36:44.369Z,6.3
2019-06-01T19:38:43.989Z,8.8
2019-06-01T19:40:44.345Z,7.9
2019-06-01T19:42:43.725Z,8.4
2019-06-01T19:44:44.091Z,8.9
2019-06-01T19:46:44.480Z,8
2019-06-01T19:48:43.984Z,8.4
2019-06-01T19:50:44.420Z,8
2019-06-01T19:52:43.797Z,8.1
2019-06-01T19:54:44.144Z,8.6
2019-06-01T19:56:45.245Z,8.7
2019-06-01T19:58:43.590Z,6.4
2019-06-01T20:00:44.165Z,6.6
2019-06-01T20:02:43.725Z,8.6
2019-06-01T20:04:43.027Z,7.1
2019-06-01T20:06:37.746Z,8
2019-06-01T20:10:45.668Z,7.8
2019-06-01T20:12:35.120Z,7.1
2019-06-01T20:14:35.700Z,6.9
2019-06-01T20:16:40.430Z,6.6
2019-06-01T20:18:35.226Z,6.2
2019-06-01T20:20:35.414Z,6.2
2019-06-01T20:22:34.738Z,6.7
2019-06-01T20:24:35.275Z,6.8
2019-06-01T20:26:48.888Z,7.3
2019-06-01T20:28:35.116Z,7.7
2019-06-01T20:30:35.725Z,6.4
2019-06-01T20:32:35.551Z,6.4
2019-06-01T20:34:34.863Z,8
2019-06-01T20:36:35.327Z,8.3
2019-06-01T20:38:34.836Z,7.5
2019-06-01T20:40:35.253Z,8.1
2019-06-01T20:42:34.666Z,8.1
2019-06-01T20:44:35.203Z,8.1
2019-06-01T20:46:35.589Z,7.4
2019-06-01T20:48:35.024Z,8
2019-06-01T20:50:35.334Z,8.1
2019-06-01T20:52:35.800Z,7.9
2019-06-01T20:54:35.266Z,8.1
2019-06-01T20:56:34.809Z,8.2
2019-06-01T20:58:35.118Z,8.5
2019-06-01T21:00:35.478Z,8.7
2019-06-01T21:02:35.582Z,8.8
2019-06-01T21:04:34.987Z,9.2
2019-06-01T21:06:35.624Z,8.6
2019-06-01T21:08:34.976Z,8.5
2019-06-01T21:10:35.457Z,9.2
2019-06-01T21:12:45.822Z,9.6
2019-06-01T21:14:35.256Z,9.6
2019-06-01T21:16:35.798Z,10.4
2019-06-01T21:18:35.368Z,8.7
2019-06-01T21:20:34.794Z,10.5
2019-06-01T21:22:35.197Z,11.4
2019-06-01T21:24:35.660Z,9.6
2019-06-01T21:26:35.091Z,9.8
2019-06-01T21:28:35.487Z,9.8
2019-06-01T21:30:34.944Z,10.2
2019-06-01T21:32:35.479Z,11
2019-06-01T21:34:35.381Z,10
2019-06-01T21:36:34.744Z,10.7
2019-06-01T21:38:38.585Z,10.2
2019-06-01T21:40:35.016Z,11.5
2019-06-01T21:42:39.742Z,11
2019-06-01T21:44:35.440Z,9.6
2019-06-01T21:46:35.633Z,11.1
2019-06-01T21:48:35.103Z,10.7
2019-06-01T21:50:35.548Z,10.8
2019-06-01T21:52:35.038Z,11
2019-06-01T21:54:35.487Z,10.5
2019-06-01T21:56:34.845Z,9.1
2019-06-01T21:58:35.135Z,10.3
2019-06-01T22:00:35.472Z,8.9
2019-06-01T22:02:34.774Z,10.3
2019-06-01T22:04:42.203Z,10.1
2019-06-01T22:06:46.726Z,9.3
2019-06-01T22:08:53.100Z,9.8
2019-06-01T22:10:44.719Z,10.4
2019-06-01T22:12:44.282Z,10.3
2019-06-01T22:14:44.568Z,9.7
2019-06-01T22:16:44.377Z,11
2019-06-01T22:18:44.217Z,10.1
2019-06-01T22:20:44.558Z,10.4
2019-06-01T22:22:43.984Z,10.2
2019-06-01T22:24:44.356Z,10.3
2019-06-01T22:26:43.808Z,10.6
2019-06-01T22:28:44.719Z,10.3
2019-06-01T22:30:44.067Z,10
2019-06-01T22:32:44.464Z,10.9
2019-06-01T22:34:44.095Z,10.5
2019-06-01T22:36:44.580Z,11.5
2019-06-01T22:38:44.019Z,11.2
2019-06-01T22:40:44.632Z,11.8
2019-06-01T22:42:44.075Z,10.7
2019-06-01T22:44:44.647Z,11.5
2019-06-01T22:46:44.232Z,11.6
2019-06-01T22:48:44.598Z,11.5
2019-06-01T22:50:44.056Z,10.8
2019-06-01T22:52:44.647Z,11.1
2019-06-01T22:54:44.071Z,10.4
2019-06-01T22:56:44.477Z,10.4
2019-06-01T22:58:44.076Z,11
2019-06-01T23:00:44.686Z,10.7
2019-06-01T23:02:44.030Z,10.6
2019-06-01T23:04:44.672Z,10.1
2019-06-01T23:06:44.091Z,10.3
2019-06-01T23:08:44.535Z,11.2
2019-06-01T23:10:44.211Z,10.6
2019-06-01T23:12:44.619Z,10.3
2019-06-01T23:14:43.937Z,9.4
2019-06-01T23:16:44.782Z,9.4
2019-06-01T23:18:44.151Z,10.5
2019-06-01T23:20:44.545Z,9.5
2019-06-01T23:22:44.103Z,9.9
2019-06-01T23:24:45.264Z,9.5
2019-06-01T23:26:43.086Z,10.5
2019-06-01T23:28:44.648Z,9.2
